Hill City, Kansas
Current Conditions -  °F | °C
As of 1:53 AM on Thursday 29 Jan 2015 (Local Time) from KHLC Reporting Station
Clear Clear  
Wind Chill: 33°   Ceiling: Unl
Heat Index: 43°   Visibility: 10mi
Dew Point: 32°   Wind: 28mph
Humidity: 65%   Direction: 360°N
Pressure: 30.23"   Gusts: 33mph
Location:  39.36°N, 99.84°W
Report Text: KHLC 290753Z AUTO 36024G29KT 10SM CLR 06/00 A3023 RMK AO2 PK WND 34030/0710 PRESRR SLP231 T00610000
Loading
Personal Weather Stations






























Interactive Weather Map New forecast layout! Learn more

10-Day Weather Forecast

Advertisements
Track Severe Weather on mobile